x

Stannard Rock, Mi (stdm4) Weather Station

2:00am - Thu 18th Sep 2014 All times are CDT. -5 hours from GMT.

  • Wind
    14mph
  • Air Temp 42°f
  • Sea Pressure 1022.8mb
  • Stannard Rock, Mi
  • Stannard Rock, Mi

More Historic Weather Station data

Upgrade to MSW Pro to gain access to the past 30 days of data for over 8000 Wavebouys and Weather Stations around the globe.

Join Pro

Comparision Forecast

View Surf forecast
   
Thu 09/18 2:00am 14
mph
1022.8mb 42f
1:00am 16 17 mph 1022.5mb 42f
12:00am 18 21 mph 1022.2mb 42f
Wed 09/17 11:00pm 16 17 mph 1022mb 43f
10:00pm 15 17 mph 1021.9mb 42f
9:00pm 17 20 mph 1021.6mb 42f
8:00pm 21 22 mph 1021.1mb 42f
7:00pm 20 21 mph 1020.4mb 42f
6:00pm 15 17 mph 1019.9mb 42f
5:00pm 14 15 mph 1019.5mb 41f
4:00pm 15 16 mph 1018.9mb 42f
3:00pm 20 21 mph 1018.2mb 41f
2:00pm 17 18 mph 1017.6mb 42f
1:00pm 17 18 mph 1016.9mb 42f
12:00pm 21 23 mph 1016mb 41f
11:00am 21 23 mph 1015.5mb 42f
10:00am 24 25 mph 1014.7mb 42f
9:00am 16 18 mph 1015mb 44f
8:00am 17 18 mph 1014.4mb 44f
7:00am 5
mph
1013.7mb 47f
6:00am 14
mph
1012.8mb 46f
5:00am 11
mph
1013.3mb 46f
4:00am 15
mph
1013.8mb 45f
3:00am 14 15 mph 1014.6mb 44f
2:00am 8 9 mph 1015.6mb 45f
1:00am 6 7 mph 1016.1mb 45f
12:00am 7
mph
1016.7mb 45f
Tue 09/16 11:00pm 7 8 mph 1017.2mb 45f
10:00pm 9 10 mph 1017mb 45f
9:00pm 15 17 mph 1016.7mb 46f
8:00pm 13
mph
1016.2mb 49f
7:00pm 20 21 mph 1016.3mb 51f
6:00pm 24 25 mph 1015.8mb 53f
5:00pm 18 20 mph 1015.3mb 55f
4:00pm 22 23 mph 1015.1mb 56f
3:00pm 21 23 mph 1014.8mb 56f
2:00pm 26 28 mph 1014.6mb 57f
1:00pm 29 30 mph 1014.8mb 55f
12:00pm 23 25 mph 1015.3mb 53f
11:00am 29 32 mph 1015.5mb 52f
10:00am 26 29 mph 1015.8mb 52f
9:00am 26 30 mph 1016.6mb 51f
8:00am 22 24 mph 1017.4mb 51f
7:00am 18 21 mph 1018.1mb 51f
6:00am 18 20 mph 1018.2mb 51f
5:00am 20 22 mph 1018.3mb 51f
4:00am 22 23 mph 1018.5mb 50f
3:00am 23
mph
1018.6mb 51f
2:00am 23 24 mph 1018.8mb 52f
1:00am 25 26 mph 1018.8mb 52f
12:00am 23 25 mph 1018.8mb 52f
Mon 09/15 11:00pm 25 26 mph 1019mb 52f
10:00pm 25 26 mph 1019.3mb 52f
9:00pm 24 25 mph 1019.3mb 52f
8:00pm 22 23 mph 1019.5mb 52f
7:00pm 25 26 mph 1019.3mb 52f
6:00pm 24 25 mph 1019.4mb 53f
5:00pm 11 13 mph 1019.5mb 50f
4:00pm 11
mph
1019.2mb 51f
3:00pm 13
mph
1019.4mb 50f
2:00pm 11 13 mph 1019.7mb 50f
1:00pm 2 3 mph 1019.6mb 51f
12:00pm 5
mph
1019.5mb 51f
11:00am 7 8 mph 1019.8mb 50f
10:00am 11
mph
1019.7mb 50f
9:00am 14
mph
1019.6mb 50f
8:00am 13 14 mph 1019.4mb 51f
7:00am 14
mph
1019.1mb 51f
6:00am 15 16 mph 1018.6mb 52f
5:00am 15
mph
1018.4mb 51f
4:00am 18 20 mph 1018.2mb 51f
3:00am 21 24 mph 1017.9mb 50f
2:00am 24 26 mph 1017.6mb 51f
1:00am 25 26 mph 1017.3mb 52f
12:00am 24
mph
1017mb 52f
Sun 09/14 11:00pm 23
mph
1016.9mb 51f
10:00pm 20 21 mph 1016.7mb 52f
9:00pm 22 23 mph 1017mb 53f
8:00pm 22 24 mph 1016.7mb 53f
7:00pm 16 17 mph 1016.6mb 54f
6:00pm 15 17 mph 1016.7mb 54f
5:00pm 7 8 mph 1016.6mb 55f
4:00pm 11 14 mph 1016.3mb 55f
3:00pm 10 11 mph 1016.7mb 54f
2:00pm 7 8 mph 1017.1mb 51f
1:00pm 14
mph
1017.5mb 50f
12:00pm 23 24 mph 1017.9mb 50f
11:00am 26 28 mph 1017.8mb 50f
10:00am 22 23 mph 1018.8mb 50f
9:00am 26 29 mph 1019.3mb 48f